sensor_id;sensor_type;location;lat;lon;timestamp;temperature;humidity
41437;DHT22;27178;49.460;10.850;2023-04-25T00:00:58;13.60;62.70
41437;DHT22;27178;49.460;10.850;2023-04-25T00:03:26;13.60;62.60
41437;DHT22;27178;49.460;10.850;2023-04-25T00:05:56;13.60;62.60
41437;DHT22;27178;49.460;10.850;2023-04-25T00:08:25;13.60;62.60
41437;DHT22;27178;49.460;10.850;2023-04-25T00:10:55;13.60;62.50
41437;DHT22;27178;49.460;10.850;2023-04-25T00:13:24;13.60;62.50
41437;DHT22;27178;49.460;10.850;2023-04-25T00:15:52;13.60;62.40
41437;DHT22;27178;49.460;10.850;2023-04-25T00:18:21;13.60;62.50
41437;DHT22;27178;49.460;10.850;2023-04-25T00:20:49;13.60;62.50
41437;DHT22;27178;49.460;10.850;2023-04-25T00:23:17;13.60;62.60
41437;DHT22;27178;49.460;10.850;2023-04-25T00:25:47;13.60;62.60
41437;DHT22;27178;49.460;10.850;2023-04-25T00:28:18;13.60;62.60
41437;DHT22;27178;49.460;10.850;2023-04-25T00:30:47;13.60;62.60
41437;DHT22;27178;49.460;10.850;2023-04-25T00:33:15;13.50;62.50
41437;DHT22;27178;49.460;10.850;2023-04-25T00:35:43;13.60;62.60
41437;DHT22;27178;49.460;10.850;2023-04-25T00:38:12;13.50;62.50
41437;DHT22;27178;49.460;10.850;2023-04-25T00:40:40;13.50;62.50
41437;DHT22;27178;49.460;10.850;2023-04-25T00:43:10;13.50;62.60
41437;DHT22;27178;49.460;10.850;2023-04-25T00:45:40;13.50;62.60
41437;DHT22;27178;49.460;10.850;2023-04-25T00:48:11;13.50;63.50
41437;DHT22;27178;49.460;10.850;2023-04-25T00:50:40;13.50;62.50
41437;DHT22;27178;49.460;10.850;2023-04-25T00:53:09;13.50;62.50
41437;DHT22;27178;49.460;10.850;2023-04-25T00:55:38;13.50;62.50
41437;DHT22;27178;49.460;10.850;2023-04-25T00:58:06;13.50;62.50
41437;DHT22;27178;49.460;10.850;2023-04-25T01:00:35;13.40;62.40
41437;DHT22;27178;49.460;10.850;2023-04-25T01:03:05;13.40;62.60
41437;DHT22;27178;49.460;10.850;2023-04-25T01:05:34;13.40;62.60
41437;DHT22;27178;49.460;10.850;2023-04-25T01:08:02;13.40;62.70
41437;DHT22;27178;49.460;10.850;2023-04-25T01:10:31;13.40;62.80
41437;DHT22;27178;49.460;10.850;2023-04-25T01:12:59;13.40;63.00
41437;DHT22;27178;49.460;10.850;2023-04-25T01:15:27;13.40;63.10
41437;DHT22;27178;49.460;10.850;2023-04-25T01:17:57;13.30;63.00
41437;DHT22;27178;49.460;10.850;2023-04-25T01:20:26;13.30;63.20
41437;DHT22;27178;49.460;10.850;2023-04-25T01:22:57;13.30;63.40
41437;DHT22;27178;49.460;10.850;2023-04-25T01:25:25;13.30;63.40
41437;DHT22;27178;49.460;10.850;2023-04-25T01:27:54;13.30;63.50
41437;DHT22;27178;49.460;10.850;2023-04-25T01:30:22;13.30;63.50
41437;DHT22;27178;49.460;10.850;2023-04-25T01:32:51;13.30;63.60
41437;DHT22;27178;49.460;10.850;2023-04-25T01:35:20;13.30;63.80
41437;DHT22;27178;49.460;10.850;2023-04-25T01:37:51;13.30;63.80
41437;DHT22;27178;49.460;10.850;2023-04-25T01:40:21;13.20;63.70
41437;DHT22;27178;49.460;10.850;2023-04-25T01:42:50;13.20;63.80
41437;DHT22;27178;49.460;10.850;2023-04-25T01:45:20;13.20;63.80
41437;DHT22;27178;49.460;10.850;2023-04-25T01:47:48;13.20;63.80
41437;DHT22;27178;49.460;10.850;2023-04-25T01:50:18;13.20;63.90
41437;DHT22;27178;49.460;10.850;2023-04-25T01:52:47;13.20;63.90
41437;DHT22;27178;49.460;10.850;2023-04-25T01:55:16;13.20;63.90
41437;DHT22;27178;49.460;10.850;2023-04-25T01:57:46;13.10;63.80
41437;DHT22;27178;49.460;10.850;2023-04-25T02:00:14;13.20;64.00
41437;DHT22;27178;49.460;10.850;2023-04-25T02:02:43;13.10;65.00
41437;DHT22;27178;49.460;10.850;2023-04-25T02:05:12;13.10;64.10
41437;DHT22;27178;49.460;10.850;2023-04-25T02:07:40;13.10;64.30
41437;DHT22;27178;49.460;10.850;2023-04-25T02:10:09;13.00;64.30
41437;DHT22;27178;49.460;10.850;2023-04-25T02:12:37;13.00;64.40
41437;DHT22;27178;49.460;10.850;2023-04-25T02:15:08;13.00;64.70
41437;DHT22;27178;49.460;10.850;2023-04-25T02:17:36;13.00;64.90
41437;DHT22;27178;49.460;10.850;2023-04-25T02:20:05;12.90;64.90
41437;DHT22;27178;49.460;10.850;2023-04-25T02:22:34;12.90;65.00
41437;DHT22;27178;49.460;10.850;2023-04-25T02:25:04;12.90;65.20
41437;DHT22;27178;49.460;10.850;2023-04-25T02:27:32;12.80;65.30
41437;DHT22;27178;49.460;10.850;2023-04-25T02:30:00;12.80;65.50
41437;DHT22;27178;49.460;10.850;2023-04-25T02:32:31;12.80;65.50
41437;DHT22;27178;49.460;10.850;2023-04-25T02:35:01;12.80;66.00
41437;DHT22;27178;49.460;10.850;2023-04-25T02:37:31;12.70;65.80
41437;DHT22;27178;49.460;10.850;2023-04-25T02:39:59;12.70;65.90
41437;DHT22;27178;49.460;10.850;2023-04-25T02:42:28;12.70;66.10
41437;DHT22;27178;49.460;10.850;2023-04-25T02:44:56;12.70;66.10
41437;DHT22;27178;49.460;10.850;2023-04-25T02:47:24;12.60;66.30
41437;DHT22;27178;49.460;10.850;2023-04-25T02:49:54;12.60;66.40
41437;DHT22;27178;49.460;10.850;2023-04-25T02:52:22;12.60;66.60
41437;DHT22;27178;49.460;10.850;2023-04-25T02:54:51;12.50;66.80
41437;DHT22;27178;49.460;10.850;2023-04-25T02:57:20;12.50;66.70
41437;DHT22;27178;49.460;10.850;2023-04-25T02:59:48;12.50;66.90
41437;DHT22;27178;49.460;10.850;2023-04-25T03:02:16;12.50;67.10
41437;DHT22;27178;49.460;10.850;2023-04-25T03:04:44;12.50;67.20
41437;DHT22;27178;49.460;10.850;2023-04-25T03:07:14;12.50;67.20
41437;DHT22;27178;49.460;10.850;2023-04-25T03:09:42;12.40;67.50
41437;DHT22;27178;49.460;10.850;2023-04-25T03:12:11;12.40;67.40
41437;DHT22;27178;49.460;10.850;2023-04-25T03:14:39;12.40;67.50
41437;DHT22;27178;49.460;10.850;2023-04-25T03:17:07;12.40;67.60
41437;DHT22;27178;49.460;10.850;2023-04-25T03:19:36;12.40;67.70
41437;DHT22;27178;49.460;10.850;2023-04-25T03:22:04;12.30;67.70
41437;DHT22;27178;49.460;10.850;2023-04-25T03:24:34;12.30;67.90
41437;DHT22;27178;49.460;10.850;2023-04-25T03:27:03;12.30;67.90
41437;DHT22;27178;49.460;10.850;2023-04-25T03:29:32;12.30;67.70
41437;DHT22;27178;49.460;10.850;2023-04-25T03:32:00;12.30;67.80
41437;DHT22;27178;49.460;10.850;2023-04-25T03:34:28;12.30;68.00
41437;DHT22;27178;49.460;10.850;2023-04-25T03:36:57;12.30;68.10
41437;DHT22;27178;49.460;10.850;2023-04-25T03:39:26;12.30;68.30
41437;DHT22;27178;49.460;10.850;2023-04-25T03:41:55;12.20;68.10
41437;DHT22;27178;49.460;10.850;2023-04-25T03:44:24;12.20;68.30
41437;DHT22;27178;49.460;10.850;2023-04-25T03:46:52;12.20;68.50
41437;DHT22;27178;49.460;10.850;2023-04-25T03:49:20;12.20;68.30
41437;DHT22;27178;49.460;10.850;2023-04-25T03:51:49;12.20;68.50
41437;DHT22;27178;49.460;10.850;2023-04-25T03:54:17;12.20;68.50
41437;DHT22;27178;49.460;10.850;2023-04-25T03:56:45;12.20;68.50
41437;DHT22;27178;49.460;10.850;2023-04-25T03:59:15;12.20;68.60
41437;DHT22;27178;49.460;10.850;2023-04-25T04:01:43;12.20;68.70
41437;DHT22;27178;49.460;10.850;2023-04-25T04:04:12;12.20;68.60
41437;DHT22;27178;49.460;10.850;2023-04-25T04:06:40;12.20;68.50
41437;DHT22;27178;49.460;10.850;2023-04-25T04:09:09;12.20;68.70
41437;DHT22;27178;49.460;10.850;2023-04-25T04:11:38;12.20;68.50
41437;DHT22;27178;49.460;10.850;2023-04-25T04:14:07;12.20;68.70
41437;DHT22;27178;49.460;10.850;2023-04-25T04:16:38;12.20;68.70
41437;DHT22;27178;49.460;10.850;2023-04-25T04:19:06;12.30;69.00
41437;DHT22;27178;49.460;10.850;2023-04-25T04:21:35;12.30;68.80
41437;DHT22;27178;49.460;10.850;2023-04-25T04:24:04;12.30;68.60
41437;DHT22;27178;49.460;10.850;2023-04-25T04:26:32;12.30;68.70
41437;DHT22;27178;49.460;10.850;2023-04-25T04:29:01;12.30;68.70
41437;DHT22;27178;49.460;10.850;2023-04-25T04:31:30;12.30;68.50
41437;DHT22;27178;49.460;10.850;2023-04-25T04:34:01;12.30;68.50
41437;DHT22;27178;49.460;10.850;2023-04-25T04:36:30;12.30;68.50
41437;DHT22;27178;49.460;10.850;2023-04-25T04:38:58;12.30;68.50
41437;DHT22;27178;49.460;10.850;2023-04-25T04:41:27;12.30;68.50
41437;DHT22;27178;49.460;10.850;2023-04-25T04:43:55;12.30;68.60
41437;DHT22;27178;49.460;10.850;2023-04-25T04:46:24;12.30;68.80
41437;DHT22;27178;49.460;10.850;2023-04-25T04:48:52;12.30;68.80
41437;DHT22;27178;49.460;10.850;2023-04-25T04:51:24;12.30;68.90
41437;DHT22;27178;49.460;10.850;2023-04-25T04:53:53;12.30;69.00
41437;DHT22;27178;49.460;10.850;2023-04-25T04:56:25;12.30;69.00
41437;DHT22;27178;49.460;10.850;2023-04-25T04:58:55;12.30;69.10
41437;DHT22;27178;49.460;10.850;2023-04-25T05:01:23;12.30;69.00
41437;DHT22;27178;49.460;10.850;2023-04-25T05:03:52;12.30;69.00
41437;DHT22;27178;49.460;10.850;2023-04-25T05:06:21;12.30;69.00
41437;DHT22;27178;49.460;10.850;2023-04-25T05:08:50;12.30;69.00
41437;DHT22;27178;49.460;10.850;2023-04-25T05:11:19;12.30;69.00
41437;DHT22;27178;49.460;10.850;2023-04-25T05:13:49;12.30;68.90
41437;DHT22;27178;49.460;10.850;2023-04-25T05:16:17;12.40;69.00
41437;DHT22;27178;49.460;10.850;2023-04-25T05:18:46;12.30;69.00
41437;DHT22;27178;49.460;10.850;2023-04-25T05:21:15;12.30;68.90
41437;DHT22;27178;49.460;10.850;2023-04-25T05:23:43;12.40;69.00
41437;DHT22;27178;49.460;10.850;2023-04-25T05:26:13;12.40;69.00
41437;DHT22;27178;49.460;10.850;2023-04-25T05:28:41;12.40;69.00
41437;DHT22;27178;49.460;10.850;2023-04-25T05:31:10;12.40;69.00
41437;DHT22;27178;49.460;10.850;2023-04-25T05:33:38;12.40;69.00
41437;DHT22;27178;49.460;10.850;2023-04-25T05:36:07;12.40;69.00
41437;DHT22;27178;49.460;10.850;2023-04-25T05:38:35;12.40;69.10
41437;DHT22;27178;49.460;10.850;2023-04-25T05:41:04;12.40;69.10
41437;DHT22;27178;49.460;10.850;2023-04-25T05:43:33;12.40;69.10
41437;DHT22;27178;49.460;10.850;2023-04-25T05:46:02;12.40;69.20
41437;DHT22;27178;49.460;10.850;2023-04-25T05:48:30;12.40;69.10
41437;DHT22;27178;49.460;10.850;2023-04-25T05:50:59;12.40;69.20
41437;DHT22;27178;49.460;10.850;2023-04-25T05:53:27;12.40;69.20
41437;DHT22;27178;49.460;10.850;2023-04-25T05:55:55;12.40;69.20
41437;DHT22;27178;49.460;10.850;2023-04-25T05:58:23;12.40;69.10
41437;DHT22;27178;49.460;10.850;2023-04-25T06:00:54;12.40;69.10
41437;DHT22;27178;49.460;10.850;2023-04-25T06:03:22;12.40;69.20
41437;DHT22;27178;49.460;10.850;2023-04-25T06:05:50;12.40;69.20
41437;DHT22;27178;49.460;10.850;2023-04-25T06:08:19;12.40;69.20
41437;DHT22;27178;49.460;10.850;2023-04-25T06:10:47;12.40;69.20
41437;DHT22;27178;49.460;10.850;2023-04-25T06:13:16;12.40;69.40
41437;DHT22;27178;49.460;10.850;2023-04-25T06:15:44;12.40;69.60
41437;DHT22;27178;49.460;10.850;2023-04-25T06:18:14;12.30;69.70
41437;DHT22;27178;49.460;10.850;2023-04-25T06:20:42;12.30;69.80
41437;DHT22;27178;49.460;10.850;2023-04-25T06:23:11;12.30;70.10
41437;DHT22;27178;49.460;10.850;2023-04-25T06:25:39;12.30;70.20
41437;DHT22;27178;49.460;10.850;2023-04-25T06:28:07;12.30;70.30
41437;DHT22;27178;49.460;10.850;2023-04-25T06:30:35;12.30;70.50
41437;DHT22;27178;49.460;10.850;2023-04-25T06:33:03;12.30;70.60
41437;DHT22;27178;49.460;10.850;2023-04-25T06:35:33;12.30;70.80
41437;DHT22;27178;49.460;10.850;2023-04-25T06:38:02;12.20;70.90
41437;DHT22;27178;49.460;10.850;2023-04-25T06:40:30;12.30;71.00
41437;DHT22;27178;49.460;10.850;2023-04-25T06:42:59;12.30;71.10
41437;DHT22;27178;49.460;10.850;2023-04-25T06:45:27;12.30;71.20
41437;DHT22;27178;49.460;10.850;2023-04-25T06:47:55;12.30;71.10
41437;DHT22;27178;49.460;10.850;2023-04-25T06:50:24;12.30;71.10
41437;DHT22;27178;49.460;10.850;2023-04-25T06:52:53;12.30;71.10
41437;DHT22;27178;49.460;10.850;2023-04-25T06:55:21;12.30;71.10
41437;DHT22;27178;49.460;10.850;2023-04-25T06:57:50;12.30;70.90
41437;DHT22;27178;49.460;10.850;2023-04-25T07:00:19;12.40;70.80
41437;DHT22;27178;49.460;10.850;2023-04-25T07:02:47;12.30;70.60
41437;DHT22;27178;49.460;10.850;2023-04-25T07:05:16;12.30;70.50
41437;DHT22;27178;49.460;10.850;2023-04-25T07:07:45;12.30;70.50
41437;DHT22;27178;49.460;10.850;2023-04-25T07:10:15;12.40;70.50
41437;DHT22;27178;49.460;10.850;2023-04-25T07:12:43;12.40;70.50
41437;DHT22;27178;49.460;10.850;2023-04-25T07:15:11;12.40;70.50
41437;DHT22;27178;49.460;10.850;2023-04-25T07:17:41;12.40;70.30
41437;DHT22;27178;49.460;10.850;2023-04-25T07:20:10;12.40;70.10
41437;DHT22;27178;49.460;10.850;2023-04-25T07:22:38;12.40;69.80
41437;DHT22;27178;49.460;10.850;2023-04-25T07:25:07;12.40;69.60
41437;DHT22;27178;49.460;10.850;2023-04-25T07:27:37;12.40;69.50
41437;DHT22;27178;49.460;10.850;2023-04-25T07:30:07;12.40;69.30
41437;DHT22;27178;49.460;10.850;2023-04-25T07:32:35;12.40;69.20
41437;DHT22;27178;49.460;10.850;2023-04-25T07:35:06;12.40;69.20
41437;DHT22;27178;49.460;10.850;2023-04-25T07:37:35;12.40;69.40
41437;DHT22;27178;49.460;10.850;2023-04-25T07:40:04;12.30;69.40
41437;DHT22;27178;49.460;10.850;2023-04-25T07:42:32;12.30;69.50
41437;DHT22;27178;49.460;10.850;2023-04-25T07:45:01;12.30;69.60
41437;DHT22;27178;49.460;10.850;2023-04-25T07:47:30;12.30;69.70
41437;DHT22;27178;49.460;10.850;2023-04-25T07:49:59;12.30;69.80
41437;DHT22;27178;49.460;10.850;2023-04-25T07:52:27;12.30;69.60
41437;DHT22;27178;49.460;10.850;2023-04-25T07:54:56;12.20;69.50
41437;DHT22;27178;49.460;10.850;2023-04-25T07:57:25;12.20;69.50
41437;DHT22;27178;49.460;10.850;2023-04-25T07:59:53;12.10;69.50
41437;DHT22;27178;49.460;10.850;2023-04-25T08:02:23;12.10;69.70
41437;DHT22;27178;49.460;10.850;2023-04-25T08:04:52;12.10;69.70
41437;DHT22;27178;49.460;10.850;2023-04-25T08:07:21;12.10;69.60
41437;DHT22;27178;49.460;10.850;2023-04-25T08:09:49;12.00;69.80
41437;DHT22;27178;49.460;10.850;2023-04-25T08:12:18;12.10;70.10
41437;DHT22;27178;49.460;10.850;2023-04-25T08:14:49;12.10;70.20
41437;DHT22;27178;49.460;10.850;2023-04-25T08:17:17;12.10;70.50
41437;DHT22;27178;49.460;10.850;2023-04-25T08:19:47;12.10;71.00
41437;DHT22;27178;49.460;10.850;2023-04-25T08:22:15;12.20;71.10
41437;DHT22;27178;49.460;10.850;2023-04-25T08:24:43;12.20;71.20
41437;DHT22;27178;49.460;10.850;2023-04-25T08:27:12;12.20;71.10
41437;DHT22;27178;49.460;10.850;2023-04-25T08:29:41;12.30;70.90
41437;DHT22;27178;49.460;10.850;2023-04-25T08:32:09;12.30;70.60
41437;DHT22;27178;49.460;10.850;2023-04-25T08:34:38;12.40;70.20
41437;DHT22;27178;49.460;10.850;2023-04-25T08:37:10;12.40;69.90
41437;DHT22;27178;49.460;10.850;2023-04-25T08:39:38;12.50;69.80
41437;DHT22;27178;49.460;10.850;2023-04-25T08:42:07;12.50;69.50
41437;DHT22;27178;49.460;10.850;2023-04-25T08:44:36;12.60;69.50
41437;DHT22;27178;49.460;10.850;2023-04-25T08:47:05;12.60;69.60
41437;DHT22;27178;49.460;10.850;2023-04-25T08:49:34;12.60;69.70
41437;DHT22;27178;49.460;10.850;2023-04-25T08:52:04;12.60;69.60
41437;DHT22;27178;49.460;10.850;2023-04-25T08:54:35;12.70;69.40
41437;DHT22;27178;49.460;10.850;2023-04-25T08:57:07;12.70;69.40
41437;DHT22;27178;49.460;10.850;2023-04-25T08:59:35;12.70;69.30
41437;DHT22;27178;49.460;10.850;2023-04-25T09:02:05;12.80;69.40
41437;DHT22;27178;49.460;10.850;2023-04-25T09:04:33;12.80;69.50
41437;DHT22;27178;49.460;10.850;2023-04-25T09:07:02;12.80;69.30
41437;DHT22;27178;49.460;10.850;2023-04-25T09:09:30;12.90;69.20
41437;DHT22;27178;49.460;10.850;2023-04-25T09:12:01;13.00;69.20
41437;DHT22;27178;49.460;10.850;2023-04-25T09:14:29;13.00;69.40
41437;DHT22;27178;49.460;10.850;2023-04-25T09:16:59;13.10;69.50
41437;DHT22;27178;49.460;10.850;2023-04-25T09:19:30;13.10;69.40
41437;DHT22;27178;49.460;10.850;2023-04-25T09:22:07;13.20;69.20
41437;DHT22;27178;49.460;10.850;2023-04-25T09:24:37;13.30;69.20
41437;DHT22;27178;49.460;10.850;2023-04-25T09:27:10;13.40;69.30
41437;DHT22;27178;49.460;10.850;2023-04-25T09:29:39;13.40;69.10
41437;DHT22;27178;49.460;10.850;2023-04-25T09:32:15;13.50;69.00
41437;DHT22;27178;49.460;10.850;2023-04-25T09:34:45;13.60;68.70
41437;DHT22;27178;49.460;10.850;2023-04-25T09:37:18;13.60;68.30
41437;DHT22;27178;49.460;10.850;2023-04-25T09:39:48;13.70;68.10
41437;DHT22;27178;49.460;10.850;2023-04-25T09:42:18;13.70;68.00
41437;DHT22;27178;49.460;10.850;2023-04-25T09:44:52;13.80;67.90
41437;DHT22;27178;49.460;10.850;2023-04-25T09:47:22;13.80;68.60
41437;DHT22;27178;49.460;10.850;2023-04-25T09:49:51;13.90;67.20
41437;DHT22;27178;49.460;10.850;2023-04-25T09:52:21;14.00;66.90
41437;DHT22;27178;49.460;10.850;2023-04-25T09:54:52;14.00;66.30
41437;DHT22;27178;49.460;10.850;2023-04-25T09:57:23;14.10;66.00
41437;DHT22;27178;49.460;10.850;2023-04-25T09:59:53;14.10;65.50
41437;DHT22;27178;49.460;10.850;2023-04-25T10:02:23;14.10;65.10
41437;DHT22;27178;49.460;10.850;2023-04-25T10:04:54;14.20;64.90
41437;DHT22;27178;49.460;10.850;2023-04-25T10:07:25;14.20;64.70
41437;DHT22;27178;49.460;10.850;2023-04-25T10:09:58;14.20;64.50
41437;DHT22;27178;49.460;10.850;2023-04-25T10:12:29;14.30;64.10
41437;DHT22;27178;49.460;10.850;2023-04-25T10:14:59;14.30;64.10
41437;DHT22;27178;49.460;10.850;2023-04-25T10:17:28;14.40;63.90
41437;DHT22;27178;49.460;10.850;2023-04-25T10:19:56;14.40;63.60
41437;DHT22;27178;49.460;10.850;2023-04-25T10:22:29;14.40;63.40
41437;DHT22;27178;49.460;10.850;2023-04-25T10:24:59;14.50;62.90
41437;DHT22;27178;49.460;10.850;2023-04-25T10:27:32;14.50;62.90
41437;DHT22;27178;49.460;10.850;2023-04-25T10:30:02;14.50;62.70
41437;DHT22;27178;49.460;10.850;2023-04-25T10:32:31;14.50;62.90
41437;DHT22;27178;49.460;10.850;2023-04-25T10:35:11;14.60;63.20
41437;DHT22;27178;49.460;10.850;2023-04-25T10:37:58;14.70;63.00
41437;DHT22;27178;49.460;10.850;2023-04-25T10:40:26;14.80;62.70
41437;DHT22;27178;49.460;10.850;2023-04-25T10:43:35;14.90;62.60
41437;DHT22;27178;49.460;10.850;2023-04-25T10:46:16;15.00;60.90
41437;DHT22;27178;49.460;10.850;2023-04-25T10:48:47;15.00;61.20
41437;DHT22;27178;49.460;10.850;2023-04-25T10:51:18;15.10;61.10
41437;DHT22;27178;49.460;10.850;2023-04-25T10:53:57;15.10;60.80
41437;DHT22;27178;49.460;10.850;2023-04-25T10:56:27;15.10;60.50
41437;DHT22;27178;49.460;10.850;2023-04-25T10:59:08;15.10;60.50
41437;DHT22;27178;49.460;10.850;2023-04-25T11:01:39;15.20;60.30
41437;DHT22;27178;49.460;10.850;2023-04-25T11:04:19;15.20;60.70
41437;DHT22;27178;49.460;10.850;2023-04-25T11:07:02;15.30;60.00
41437;DHT22;27178;49.460;10.850;2023-04-25T11:09:35;15.30;59.90
41437;DHT22;27178;49.460;10.850;2023-04-25T11:12:04;15.30;60.00
41437;DHT22;27178;49.460;10.850;2023-04-25T11:14:35;15.30;59.80
41437;DHT22;27178;49.460;10.850;2023-04-25T11:17:03;15.30;59.60
41437;DHT22;27178;49.460;10.850;2023-04-25T11:19:32;15.30;59.40
41437;DHT22;27178;49.460;10.850;2023-04-25T11:22:02;15.20;59.10
41437;DHT22;27178;49.460;10.850;2023-04-25T11:24:31;15.20;59.00
41437;DHT22;27178;49.460;10.850;2023-04-25T11:27:02;15.20;58.80
41437;DHT22;27178;49.460;10.850;2023-04-25T11:29:31;15.70;58.90
41437;DHT22;27178;49.460;10.850;2023-04-25T11:32:01;15.10;58.40
41437;DHT22;27178;49.460;10.850;2023-04-25T11:34:32;15.10;58.50
41437;DHT22;27178;49.460;10.850;2023-04-25T11:37:02;15.10;58.60
41437;DHT22;27178;49.460;10.850;2023-04-25T11:39:31;15.00;58.70
41437;DHT22;27178;49.460;10.850;2023-04-25T11:41:59;15.10;58.60
41437;DHT22;27178;49.460;10.850;2023-04-25T11:44:34;15.20;58.60
41437;DHT22;27178;49.460;10.850;2023-04-25T11:47:04;15.20;58.60
41437;DHT22;27178;49.460;10.850;2023-04-25T11:49:32;15.30;58.50
41437;DHT22;27178;49.460;10.850;2023-04-25T11:52:02;15.30;58.50
41437;DHT22;27178;49.460;10.850;2023-04-25T11:54:30;15.40;58.40
41437;DHT22;27178;49.460;10.850;2023-04-25T11:56:58;15.50;58.30
41437;DHT22;27178;49.460;10.850;2023-04-25T11:59:28;15.50;58.20
41437;DHT22;27178;49.460;10.850;2023-04-25T12:01:56;15.60;58.10
41437;DHT22;27178;49.460;10.850;2023-04-25T12:04:30;15.70;58.10
41437;DHT22;27178;49.460;10.850;2023-04-25T12:07:01;15.60;57.60
41437;DHT22;27178;49.460;10.850;2023-04-25T12:09:31;15.70;57.60
41437;DHT22;27178;49.460;10.850;2023-04-25T12:12:01;15.70;57.50
41437;DHT22;27178;49.460;10.850;2023-04-25T12:14:32;15.70;57.40
41437;DHT22;27178;49.460;10.850;2023-04-25T12:17:04;15.60;57.20
41437;DHT22;27178;49.460;10.850;2023-04-25T12:19:37;15.70;57.50
41437;DHT22;27178;49.460;10.850;2023-04-25T12:22:19;15.70;57.60
41437;DHT22;27178;49.460;10.850;2023-04-25T12:24:48;15.70;57.60
41437;DHT22;27178;49.460;10.850;2023-04-25T12:27:17;15.80;57.80
41437;DHT22;27178;49.460;10.850;2023-04-25T12:29:54;15.90;57.70
41437;DHT22;27178;49.460;10.850;2023-04-25T12:32:22;15.90;57.20
41437;DHT22;27178;49.460;10.850;2023-04-25T12:34:52;16.00;57.40
41437;DHT22;27178;49.460;10.850;2023-04-25T12:37:20;16.00;57.10
41437;DHT22;27178;49.460;10.850;2023-04-25T12:39:48;16.00;57.00
41437;DHT22;27178;49.460;10.850;2023-04-25T12:42:17;15.90;56.90
41437;DHT22;27178;49.460;10.850;2023-04-25T12:44:46;15.90;56.80
41437;DHT22;27178;49.460;10.850;2023-04-25T12:47:14;15.80;56.80
41437;DHT22;27178;49.460;10.850;2023-04-25T12:49:42;15.80;56.70
41437;DHT22;27178;49.460;10.850;2023-04-25T12:52:12;15.70;56.80
41437;DHT22;27178;49.460;10.850;2023-04-25T12:54:40;15.60;56.80
41437;DHT22;27178;49.460;10.850;2023-04-25T12:57:08;15.60;56.90
41437;DHT22;27178;49.460;10.850;2023-04-25T12:59:36;15.60;57.10
41437;DHT22;27178;49.460;10.850;2023-04-25T13:02:05;15.60;57.20
41437;DHT22;27178;49.460;10.850;2023-04-25T13:04:34;15.50;57.00
41437;DHT22;27178;49.460;10.850;2023-04-25T13:07:03;15.50;57.00
41437;DHT22;27178;49.460;10.850;2023-04-25T13:09:33;15.50;57.70
41437;DHT22;27178;49.460;10.850;2023-04-25T13:12:02;15.50;57.10
41437;DHT22;27178;49.460;10.850;2023-04-25T13:14:31;15.50;57.20
41437;DHT22;27178;49.460;10.850;2023-04-25T13:16:59;15.50;57.10
41437;DHT22;27178;49.460;10.850;2023-04-25T13:19:28;15.50;57.10
41437;DHT22;27178;49.460;10.850;2023-04-25T13:21:56;15.50;57.20
41437;DHT22;27178;49.460;10.850;2023-04-25T13:24:25;15.50;57.20
41437;DHT22;27178;49.460;10.850;2023-04-25T13:26:55;15.60;57.10
41437;DHT22;27178;49.460;10.850;2023-04-25T13:29:24;15.60;57.20
41437;DHT22;27178;49.460;10.850;2023-04-25T13:31:52;15.60;57.20
41437;DHT22;27178;49.460;10.850;2023-04-25T13:34:20;15.70;57.30
41437;DHT22;27178;49.460;10.850;2023-04-25T13:36:49;15.70;57.20
41437;DHT22;27178;49.460;10.850;2023-04-25T13:39:18;15.70;57.00
41437;DHT22;27178;49.460;10.850;2023-04-25T13:41:46;15.80;56.90
41437;DHT22;27178;49.460;10.850;2023-04-25T13:44:16;15.80;56.80
41437;DHT22;27178;49.460;10.850;2023-04-25T13:46:44;15.80;56.70
41437;DHT22;27178;49.460;10.850;2023-04-25T13:49:13;15.80;56.80
41437;DHT22;27178;49.460;10.850;2023-04-25T13:51:42;15.70;56.70
41437;DHT22;27178;49.460;10.850;2023-04-25T13:54:11;15.70;56.80
41437;DHT22;27178;49.460;10.850;2023-04-25T13:56:40;15.70;56.80
41437;DHT22;27178;49.460;10.850;2023-04-25T13:59:09;15.70;56.80
41437;DHT22;27178;49.460;10.850;2023-04-25T14:01:39;15.70;56.80
41437;DHT22;27178;49.460;10.850;2023-04-25T14:04:07;15.70;56.80
41437;DHT22;27178;49.460;10.850;2023-04-25T14:06:36;15.60;56.80
41437;DHT22;27178;49.460;10.850;2023-04-25T14:09:05;15.60;56.80
41437;DHT22;27178;49.460;10.850;2023-04-25T14:11:33;15.60;56.80
41437;DHT22;27178;49.460;10.850;2023-04-25T14:14:02;15.60;56.80
41437;DHT22;27178;49.460;10.850;2023-04-25T14:16:31;15.60;56.80
41437;DHT22;27178;49.460;10.850;2023-04-25T14:19:00;15.50;56.70
41437;DHT22;27178;49.460;10.850;2023-04-25T14:21:29;15.50;56.70
41437;DHT22;27178;49.460;10.850;2023-04-25T14:23:59;15.50;56.80
41437;DHT22;27178;49.460;10.850;2023-04-25T14:26:28;15.40;56.80
41437;DHT22;27178;49.460;10.850;2023-04-25T14:28:56;15.40;56.80
41437;DHT22;27178;49.460;10.850;2023-04-25T14:31:25;15.30;57.50
41437;DHT22;27178;49.460;10.850;2023-04-25T14:33:54;15.30;56.80
41437;DHT22;27178;49.460;10.850;2023-04-25T14:36:28;15.20;56.80
41437;DHT22;27178;49.460;10.850;2023-04-25T14:38:57;15.20;56.70
41437;DHT22;27178;49.460;10.850;2023-04-25T14:41:26;15.10;56.70
41437;DHT22;27178;49.460;10.850;2023-04-25T14:43:55;15.10;56.70
41437;DHT22;27178;49.460;10.850;2023-04-25T14:46:23;15.10;56.60
41437;DHT22;27178;49.460;10.850;2023-04-25T14:48:52;15.10;56.70
41437;DHT22;27178;49.460;10.850;2023-04-25T14:51:22;15.10;56.70
41437;DHT22;27178;49.460;10.850;2023-04-25T14:53:52;15.00;56.70
41437;DHT22;27178;49.460;10.850;2023-04-25T14:56:21;15.10;56.80
41437;DHT22;27178;49.460;10.850;2023-04-25T14:58:49;15.00;56.70
41437;DHT22;27178;49.460;10.850;2023-04-25T15:01:18;15.00;56.70
41437;DHT22;27178;49.460;10.850;2023-04-25T15:03:47;15.10;56.80
41437;DHT22;27178;49.460;10.850;2023-04-25T15:06:17;15.00;56.80
41437;DHT22;27178;49.460;10.850;2023-04-25T15:08:45;15.10;56.90
41437;DHT22;27178;49.460;10.850;2023-04-25T15:11:15;15.10;56.90
41437;DHT22;27178;49.460;10.850;2023-04-25T15:13:43;15.10;57.40
41437;DHT22;27178;49.460;10.850;2023-04-25T15:16:12;15.10;56.80
41437;DHT22;27178;49.460;10.850;2023-04-25T15:18:41;15.10;56.80
41437;DHT22;27178;49.460;10.850;2023-04-25T15:21:09;15.10;57.00
41437;DHT22;27178;49.460;10.850;2023-04-25T15:23:37;15.10;57.40
41437;DHT22;27178;49.460;10.850;2023-04-25T15:26:05;15.10;57.50
41437;DHT22;27178;49.460;10.850;2023-04-25T15:28:35;15.10;57.50